sensor_id;sensor_type;location;lat;lon;timestamp;pressure;altitude;pressure_sealevel;temperature;humidity
64336;BME280;50672;53.362;-6.240;2022-11-15T00:00:52;99145.44;;;11.55;90.90
64336;BME280;50672;53.362;-6.240;2022-11-15T00:03:21;99147.09;;;11.56;90.82
64336;BME280;50672;53.362;-6.240;2022-11-15T00:05:49;99140.59;;;11.57;91.31
64336;BME280;50672;53.362;-6.240;2022-11-15T00:08:16;99131.38;;;11.58;91.17
64336;BME280;50672;53.362;-6.240;2022-11-15T00:10:55;99134.94;;;11.59;91.50
64336;BME280;50672;53.362;-6.240;2022-11-15T00:13:23;99119.41;;;11.59;91.59
64336;BME280;50672;53.362;-6.240;2022-11-15T00:15:50;99112.91;;;11.60;91.57
64336;BME280;50672;53.362;-6.240;2022-11-15T00:18:18;99102.84;;;11.61;nan
64336;BME280;50672;53.362;-6.240;2022-11-15T00:20:45;99094.69;;;11.61;91.88
64336;BME280;50672;53.362;-6.240;2022-11-15T00:23:12;99093.59;;;11.62;91.77
64336;BME280;50672;53.362;-6.240;2022-11-15T00:25:39;99087.91;;;11.63;91.99
64336;BME280;50672;53.362;-6.240;2022-11-15T00:28:06;99091.72;;;11.62;91.91
64336;BME280;50672;53.362;-6.240;2022-11-15T00:30:33;99078.09;;;11.62;92.28
64336;BME280;50672;53.362;-6.240;2022-11-15T00:33:02;99064.25;;;11.64;92.15
64336;BME280;50672;53.362;-6.240;2022-11-15T00:35:33;99062.34;;;11.65;92.30
64336;BME280;50672;53.362;-6.240;2022-11-15T00:38:01;99064.03;;;11.66;92.46
64336;BME280;50672;53.362;-6.240;2022-11-15T00:40:28;99071.13;;;11.67;92.65
64336;BME280;50672;53.362;-6.240;2022-11-15T00:42:55;99060.84;;;11.69;92.51
64336;BME280;50672;53.362;-6.240;2022-11-15T00:45:23;99056.00;;;11.71;92.50
64336;BME280;50672;53.362;-6.240;2022-11-15T00:47:49;99039.66;;;11.71;92.69
64336;BME280;50672;53.362;-6.240;2022-11-15T00:50:17;99036.69;;;11.72;92.84
64336;BME280;50672;53.362;-6.240;2022-11-15T00:52:44;99027.25;;;11.75;92.85
64336;BME280;50672;53.362;-6.240;2022-11-15T00:55:16;99021.78;;;11.75;93.17
64336;BME280;50672;53.362;-6.240;2022-11-15T00:57:43;99010.88;;;11.75;93.13
64336;BME280;50672;53.362;-6.240;2022-11-15T01:00:11;99015.88;;;11.78;93.31
64336;BME280;50672;53.362;-6.240;2022-11-15T01:02:37;99020.25;;;11.79;93.10
64336;BME280;50672;53.362;-6.240;2022-11-15T01:05:05;99016.47;;;11.80;93.12
64336;BME280;50672;53.362;-6.240;2022-11-15T01:07:32;99007.25;;;11.81;93.44
64336;BME280;50672;53.362;-6.240;2022-11-15T01:09:59;99008.91;;;11.82;93.82
64336;BME280;50672;53.362;-6.240;2022-11-15T01:12:26;99004.06;;;11.84;93.32
64336;BME280;50672;53.362;-6.240;2022-11-15T01:14:53;98995.88;;;11.84;93.39
64336;BME280;50672;53.362;-6.240;2022-11-15T01:17:20;98995.66;;;11.86;93.56
64336;BME280;50672;53.362;-6.240;2022-11-15T01:19:47;98989.38;;;11.85;93.56
64336;BME280;50672;53.362;-6.240;2022-11-15T01:22:14;98989.97;;;11.87;93.64
64336;BME280;50672;53.362;-6.240;2022-11-15T01:24:41;98980.16;;;11.86;93.58
64336;BME280;50672;53.362;-6.240;2022-11-15T01:27:08;98967.34;;;11.87;93.63
64336;BME280;50672;53.362;-6.240;2022-11-15T01:29:35;98958.94;;;11.88;94.08
64336;BME280;50672;53.362;-6.240;2022-11-15T01:32:02;98943.38;;;11.89;93.74
64336;BME280;50672;53.362;-6.240;2022-11-15T01:34:29;98947.78;;;11.90;93.84
64336;BME280;50672;53.362;-6.240;2022-11-15T01:36:55;98930.59;;;11.89;94.07
64336;BME280;50672;53.362;-6.240;2022-11-15T01:39:22;98937.72;;;11.90;94.06
64336;BME280;50672;53.362;-6.240;2022-11-15T01:41:49;98932.28;;;11.90;94.07
64336;BME280;50672;53.362;-6.240;2022-11-15T01:44:40;98926.59;;;11.92;94.14
64336;BME280;50672;53.362;-6.240;2022-11-15T01:50:01;98916.94;;;11.96;94.25
64336;BME280;50672;53.362;-6.240;2022-11-15T01:52:31;98909.81;;;11.95;94.23
64336;BME280;50672;53.362;-6.240;2022-11-15T01:57:29;98896.75;;;11.97;94.49
64336;BME280;50672;53.362;-6.240;2022-11-15T01:59:57;98891.91;;;11.99;94.67
64336;BME280;50672;53.362;-6.240;2022-11-15T02:02:24;98885.41;;;12.00;94.44
64336;BME280;50672;53.362;-6.240;2022-11-15T02:04:51;98913.50;;;12.01;94.51
64336;BME280;50672;53.362;-6.240;2022-11-15T02:07:19;98959.25;;;11.99;94.55
64336;BME280;50672;53.362;-6.240;2022-11-15T02:09:48;98979.72;;;11.45;100.00
64336;BME280;50672;53.362;-6.240;2022-11-15T02:12:19;98978.97;;;11.13;100.00
64336;BME280;50672;53.362;-6.240;2022-11-15T02:14:51;62695.50;;;-147.99;100.00
64336;BME280;50672;53.362;-6.240;2022-11-15T02:17:41;62695.50;;;-147.99;100.00
64336;BME280;50672;53.362;-6.240;2022-11-15T02:20:42;62695.50;;;-147.99;100.00
64336;BME280;50672;53.362;-6.240;2022-11-15T02:23:41;62695.50;;;-147.99;100.00
64336;BME280;50672;53.362;-6.240;2022-11-15T02:32:00;62695.50;;;-147.99;100.00
64336;BME280;50672;53.362;-6.240;2022-11-15T02:40:10;62695.50;;;-147.99;100.00
64336;BME280;50672;53.362;-6.240;2022-11-15T02:42:46;62695.50;;;-147.99;100.00
64336;BME280;50672;53.362;-6.240;2022-11-15T02:45:46;62695.50;;;-147.99;100.00
64336;BME280;50672;53.362;-6.240;2022-11-15T02:48:16;62695.50;;;-147.99;100.00
64336;BME280;50672;53.362;-6.240;2022-11-15T02:50:45;62695.50;;;-147.99;100.00
64336;BME280;50672;53.362;-6.240;2022-11-15T02:53:14;62695.50;;;-147.99;100.00
64336;BME280;50672;53.362;-6.240;2022-11-15T02:55:44;62695.50;;;-147.99;100.00
64336;BME280;50672;53.362;-6.240;2022-11-15T03:04:21;62695.50;;;-147.99;100.00
64336;BME280;50672;53.362;-6.240;2022-11-15T03:07:16;62695.50;;;-147.99;100.00
64336;BME280;50672;53.362;-6.240;2022-11-15T03:12:28;62695.50;;;-147.99;100.00
64336;BME280;50672;53.362;-6.240;2022-11-15T03:15:04;62695.50;;;-147.99;100.00
64336;BME280;50672;53.362;-6.240;2022-11-15T03:17:42;62695.50;;;-147.99;100.00
64336;BME280;50672;53.362;-6.240;2022-11-15T03:20:13;62695.50;;;-147.99;100.00
64336;BME280;50672;53.362;-6.240;2022-11-15T03:22:43;62695.50;;;-147.99;100.00
64336;BME280;50672;53.362;-6.240;2022-11-15T03:25:15;62695.50;;;-147.99;100.00
64336;BME280;50672;53.362;-6.240;2022-11-15T03:27:49;62695.50;;;-147.99;100.00
64336;BME280;50672;53.362;-6.240;2022-11-15T03:30:17;62695.50;;;-147.99;100.00
64336;BME280;50672;53.362;-6.240;2022-11-15T03:32:47;62695.50;;;-147.99;100.00
64336;BME280;50672;53.362;-6.240;2022-11-15T03:35:22;62695.50;;;-147.99;100.00
64336;BME280;50672;53.362;-6.240;2022-11-15T03:37:57;62695.50;;;-147.99;100.00
64336;BME280;50672;53.362;-6.240;2022-11-15T03:45:58;62695.50;;;-147.99;100.00
64336;BME280;50672;53.362;-6.240;2022-11-15T03:48:30;62695.50;;;-147.99;100.00
64336;BME280;50672;53.362;-6.240;2022-11-15T03:50:59;62695.50;;;-147.99;100.00
64336;BME280;50672;53.362;-6.240;2022-11-15T03:53:27;62695.50;;;-147.99;100.00
64336;BME280;50672;53.362;-6.240;2022-11-15T03:55:55;62695.50;;;-147.99;100.00
64336;BME280;50672;53.362;-6.240;2022-11-15T03:58:22;62695.50;;;-147.99;100.00
64336;BME280;50672;53.362;-6.240;2022-11-15T04:00:49;62695.50;;;-147.99;100.00
64336;BME280;50672;53.362;-6.240;2022-11-15T04:03:15;62695.50;;;-147.99;100.00
64336;BME280;50672;53.362;-6.240;2022-11-15T04:05:42;62695.50;;;-147.99;100.00
64336;BME280;50672;53.362;-6.240;2022-11-15T04:08:09;62695.50;;;-147.99;100.00
64336;BME280;50672;53.362;-6.240;2022-11-15T04:10:35;62695.50;;;-147.99;100.00
64336;BME280;50672;53.362;-6.240;2022-11-15T04:13:03;62695.50;;;-147.99;100.00
64336;BME280;50672;53.362;-6.240;2022-11-15T04:15:29;62695.50;;;-147.99;100.00
64336;BME280;50672;53.362;-6.240;2022-11-15T04:17:56;62695.50;;;-147.99;100.00
64336;BME280;50672;53.362;-6.240;2022-11-15T04:20:28;62695.50;;;-147.99;100.00
64336;BME280;50672;53.362;-6.240;2022-11-15T04:23:14;62695.50;;;-147.99;100.00
64336;BME280;50672;53.362;-6.240;2022-11-15T04:26:06;62695.50;;;-147.99;100.00
64336;BME280;50672;53.362;-6.240;2022-11-15T04:28:34;62695.50;;;-147.99;100.00
64336;BME280;50672;53.362;-6.240;2022-11-15T04:31:00;62695.50;;;-147.99;100.00
64336;BME280;50672;53.362;-6.240;2022-11-15T04:33:27;62695.50;;;-147.99;100.00
64336;BME280;50672;53.362;-6.240;2022-11-15T04:35:55;62695.50;;;-147.99;100.00
64336;BME280;50672;53.362;-6.240;2022-11-15T04:38:57;62695.50;;;-147.99;100.00
64336;BME280;50672;53.362;-6.240;2022-11-15T04:41:24;62695.50;;;-147.99;100.00
64336;BME280;50672;53.362;-6.240;2022-11-15T04:43:50;62695.50;;;-147.99;100.00
64336;BME280;50672;53.362;-6.240;2022-11-15T04:46:17;62695.50;;;-147.99;100.00
64336;BME280;50672;53.362;-6.240;2022-11-15T04:48:44;62695.50;;;-147.99;100.00
64336;BME280;50672;53.362;-6.240;2022-11-15T04:51:11;62695.50;;;-147.99;100.00
64336;BME280;50672;53.362;-6.240;2022-11-15T04:53:37;62695.50;;;-147.99;100.00
64336;BME280;50672;53.362;-6.240;2022-11-15T04:56:04;62695.50;;;-147.99;100.00
64336;BME280;50672;53.362;-6.240;2022-11-15T04:58:31;62695.50;;;-147.99;100.00
64336;BME280;50672;53.362;-6.240;2022-11-15T05:00:58;62695.50;;;-147.99;100.00
64336;BME280;50672;53.362;-6.240;2022-11-15T05:03:25;62695.50;;;-147.99;100.00
64336;BME280;50672;53.362;-6.240;2022-11-15T05:06:10;62695.50;;;-147.99;100.00
64336;BME280;50672;53.362;-6.240;2022-11-15T05:08:37;62695.50;;;-147.99;100.00
64336;BME280;50672;53.362;-6.240;2022-11-15T05:11:03;62695.50;;;-147.99;100.00
64336;BME280;50672;53.362;-6.240;2022-11-15T05:13:30;62695.50;;;-147.99;100.00
64336;BME280;50672;53.362;-6.240;2022-11-15T05:16:17;62695.50;;;-147.99;100.00
64336;BME280;50672;53.362;-6.240;2022-11-15T05:19:44;62695.50;;;-147.99;100.00
64336;BME280;50672;53.362;-6.240;2022-11-15T05:23:10;62695.50;;;-147.99;100.00
64336;BME280;50672;53.362;-6.240;2022-11-15T05:26:33;62695.50;;;-147.99;100.00
64336;BME280;50672;53.362;-6.240;2022-11-15T05:29:00;62695.50;;;-147.99;100.00
64336;BME280;50672;53.362;-6.240;2022-11-15T05:31:27;62695.50;;;-147.99;100.00
64336;BME280;50672;53.362;-6.240;2022-11-15T05:33:55;62695.50;;;-147.99;100.00
64336;BME280;50672;53.362;-6.240;2022-11-15T05:36:49;62695.50;;;-147.99;100.00
64336;BME280;50672;53.362;-6.240;2022-11-15T05:39:15;62695.50;;;-147.99;100.00
64336;BME280;50672;53.362;-6.240;2022-11-15T05:41:44;62695.50;;;-147.99;100.00
64336;BME280;50672;53.362;-6.240;2022-11-15T05:44:13;62695.50;;;-147.99;100.00
64336;BME280;50672;53.362;-6.240;2022-11-15T05:46:43;62695.50;;;-147.99;100.00
64336;BME280;50672;53.362;-6.240;2022-11-15T05:49:13;62695.50;;;-147.99;100.00
64336;BME280;50672;53.362;-6.240;2022-11-15T05:51:42;62695.50;;;-147.99;100.00
64336;BME280;50672;53.362;-6.240;2022-11-15T05:54:10;62695.50;;;-147.99;100.00
64336;BME280;50672;53.362;-6.240;2022-11-15T05:56:38;62695.50;;;-147.99;100.00
64336;BME280;50672;53.362;-6.240;2022-11-15T05:59:05;62695.50;;;-147.99;100.00
64336;BME280;50672;53.362;-6.240;2022-11-15T06:01:33;62695.50;;;-147.99;100.00
64336;BME280;50672;53.362;-6.240;2022-11-15T06:04:00;62695.50;;;-147.99;100.00
64336;BME280;50672;53.362;-6.240;2022-11-15T06:06:28;62695.50;;;-147.99;100.00
64336;BME280;50672;53.362;-6.240;2022-11-15T06:08:55;62695.50;;;-147.99;100.00
64336;BME280;50672;53.362;-6.240;2022-11-15T06:11:22;62695.50;;;-147.99;100.00
64336;BME280;50672;53.362;-6.240;2022-11-15T06:13:48;62695.50;;;-147.99;100.00
64336;BME280;50672;53.362;-6.240;2022-11-15T06:16:15;62695.50;;;-147.99;100.00
64336;BME280;50672;53.362;-6.240;2022-11-15T06:18:42;62695.50;;;-147.99;100.00
64336;BME280;50672;53.362;-6.240;2022-11-15T06:21:09;62695.50;;;-147.99;100.00
64336;BME280;50672;53.362;-6.240;2022-11-15T06:23:36;62695.50;;;-147.99;100.00
64336;BME280;50672;53.362;-6.240;2022-11-15T06:26:03;62695.50;;;-147.99;100.00
64336;BME280;50672;53.362;-6.240;2022-11-15T06:28:31;62695.50;;;-147.99;100.00
64336;BME280;50672;53.362;-6.240;2022-11-15T06:31:03;62695.50;;;-147.99;100.00
64336;BME280;50672;53.362;-6.240;2022-11-15T06:33:30;62695.50;;;-147.99;100.00
64336;BME280;50672;53.362;-6.240;2022-11-15T06:36:06;62695.50;;;-147.99;100.00
64336;BME280;50672;53.362;-6.240;2022-11-15T06:38:39;62695.50;;;-147.99;100.00
64336;BME280;50672;53.362;-6.240;2022-11-15T06:41:08;62695.50;;;-147.99;100.00
64336;BME280;50672;53.362;-6.240;2022-11-15T06:43:36;62695.50;;;-147.99;100.00
64336;BME280;50672;53.362;-6.240;2022-11-15T06:46:04;62695.50;;;-147.99;100.00
64336;BME280;50672;53.362;-6.240;2022-11-15T06:48:32;62695.50;;;-147.99;100.00
64336;BME280;50672;53.362;-6.240;2022-11-15T06:51:01;62695.50;;;-147.99;100.00
64336;BME280;50672;53.362;-6.240;2022-11-15T06:53:29;62695.50;;;-147.99;100.00
64336;BME280;50672;53.362;-6.240;2022-11-15T06:56:01;62695.50;;;-147.99;100.00
64336;BME280;50672;53.362;-6.240;2022-11-15T06:58:28;62695.50;;;-147.99;100.00
64336;BME280;50672;53.362;-6.240;2022-11-15T07:01:07;62695.50;;;-147.99;100.00
64336;BME280;50672;53.362;-6.240;2022-11-15T07:03:36;62695.50;;;-147.99;100.00
64336;BME280;50672;53.362;-6.240;2022-11-15T07:06:03;62695.50;;;-147.99;100.00
64336;BME280;50672;53.362;-6.240;2022-11-15T07:08:33;62695.50;;;-147.99;100.00
64336;BME280;50672;53.362;-6.240;2022-11-15T07:11:05;62695.50;;;-147.99;100.00
64336;BME280;50672;53.362;-6.240;2022-11-15T07:13:33;62695.50;;;-147.99;100.00
64336;BME280;50672;53.362;-6.240;2022-11-15T07:16:04;62695.50;;;-147.99;100.00
64336;BME280;50672;53.362;-6.240;2022-11-15T07:18:33;62695.50;;;-147.99;100.00
64336;BME280;50672;53.362;-6.240;2022-11-15T07:21:04;62695.50;;;-147.99;100.00
64336;BME280;50672;53.362;-6.240;2022-11-15T07:23:32;62695.50;;;-147.99;100.00
64336;BME280;50672;53.362;-6.240;2022-11-15T07:25:59;62695.50;;;-147.99;100.00
64336;BME280;50672;53.362;-6.240;2022-11-15T07:28:26;62695.50;;;-147.99;100.00
64336;BME280;50672;53.362;-6.240;2022-11-15T07:30:54;62695.50;;;-147.99;100.00
64336;BME280;50672;53.362;-6.240;2022-11-15T07:33:21;62695.50;;;-147.99;100.00
64336;BME280;50672;53.362;-6.240;2022-11-15T07:35:49;62695.50;;;-147.99;100.00
64336;BME280;50672;53.362;-6.240;2022-11-15T07:38:17;62695.50;;;-147.99;100.00
64336;BME280;50672;53.362;-6.240;2022-11-15T07:40:46;62695.50;;;-147.99;100.00
64336;BME280;50672;53.362;-6.240;2022-11-15T07:43:13;62695.50;;;-147.99;100.00
64336;BME280;50672;53.362;-6.240;2022-11-15T07:45:44;62695.50;;;-147.99;100.00
64336;BME280;50672;53.362;-6.240;2022-11-15T07:48:11;62695.50;;;-147.99;100.00
64336;BME280;50672;53.362;-6.240;2022-11-15T07:50:42;62695.50;;;-147.99;100.00
64336;BME280;50672;53.362;-6.240;2022-11-15T07:53:09;62695.50;;;-147.99;100.00
64336;BME280;50672;53.362;-6.240;2022-11-15T07:55:39;62695.50;;;-147.99;100.00
64336;BME280;50672;53.362;-6.240;2022-11-15T07:58:08;62695.50;;;-147.99;100.00
64336;BME280;50672;53.362;-6.240;2022-11-15T08:00:36;62695.50;;;-147.99;100.00
64336;BME280;50672;53.362;-6.240;2022-11-15T08:03:05;62695.50;;;-147.99;100.00
64336;BME280;50672;53.362;-6.240;2022-11-15T08:05:33;62695.50;;;-147.99;100.00
64336;BME280;50672;53.362;-6.240;2022-11-15T08:08:00;62695.50;;;-147.99;100.00
64336;BME280;50672;53.362;-6.240;2022-11-15T08:10:28;62695.50;;;-147.99;100.00
64336;BME280;50672;53.362;-6.240;2022-11-15T08:13:09;62695.50;;;-147.99;100.00
64336;BME280;50672;53.362;-6.240;2022-11-15T08:15:37;62695.50;;;-147.99;100.00
64336;BME280;50672;53.362;-6.240;2022-11-15T08:18:06;62695.50;;;-147.99;100.00
64336;BME280;50672;53.362;-6.240;2022-11-15T08:20:33;62695.50;;;-147.99;100.00
64336;BME280;50672;53.362;-6.240;2022-11-15T08:23:02;62695.50;;;-147.99;100.00
64336;BME280;50672;53.362;-6.240;2022-11-15T08:25:30;62695.50;;;-147.99;100.00
64336;BME280;50672;53.362;-6.240;2022-11-15T08:27:59;62695.50;;;-147.99;100.00
64336;BME280;50672;53.362;-6.240;2022-11-15T08:30:27;62695.50;;;-147.99;100.00
64336;BME280;50672;53.362;-6.240;2022-11-15T08:32:56;62695.50;;;-147.99;100.00
64336;BME280;50672;53.362;-6.240;2022-11-15T08:35:24;62695.50;;;-147.99;100.00
64336;BME280;50672;53.362;-6.240;2022-11-15T08:37:54;62695.50;;;-147.99;100.00
64336;BME280;50672;53.362;-6.240;2022-11-15T08:40:21;62695.50;;;-147.99;100.00
64336;BME280;50672;53.362;-6.240;2022-11-15T08:42:49;62695.50;;;-147.99;100.00
64336;BME280;50672;53.362;-6.240;2022-11-15T08:45:16;62695.50;;;-147.99;100.00
64336;BME280;50672;53.362;-6.240;2022-11-15T08:47:43;62695.50;;;-147.99;100.00
64336;BME280;50672;53.362;-6.240;2022-11-15T08:50:12;62695.50;;;-147.99;100.00
64336;BME280;50672;53.362;-6.240;2022-11-15T08:52:39;62695.50;;;-147.99;100.00
64336;BME280;50672;53.362;-6.240;2022-11-15T08:55:06;62695.50;;;-147.99;100.00
64336;BME280;50672;53.362;-6.240;2022-11-15T08:57:33;62695.50;;;-147.99;100.00
64336;BME280;50672;53.362;-6.240;2022-11-15T09:00:00;62695.50;;;-147.99;100.00
64336;BME280;50672;53.362;-6.240;2022-11-15T09:02:27;62695.50;;;-147.99;100.00
64336;BME280;50672;53.362;-6.240;2022-11-15T09:04:53;62695.50;;;-147.99;100.00
64336;BME280;50672;53.362;-6.240;2022-11-15T09:07:20;62695.50;;;-147.99;100.00
64336;BME280;50672;53.362;-6.240;2022-11-15T09:09:47;62695.50;;;-147.99;100.00
64336;BME280;50672;53.362;-6.240;2022-11-15T09:12:14;62695.50;;;-147.99;100.00
64336;BME280;50672;53.362;-6.240;2022-11-15T09:14:41;62695.50;;;-147.99;100.00
64336;BME280;50672;53.362;-6.240;2022-11-15T09:17:08;62695.50;;;-147.99;100.00
64336;BME280;50672;53.362;-6.240;2022-11-15T09:19:55;62695.50;;;-147.99;100.00
64336;BME280;50672;53.362;-6.240;2022-11-15T09:23:21;62695.50;;;-147.99;100.00
64336;BME280;50672;53.362;-6.240;2022-11-15T09:26:49;62695.50;;;-147.99;100.00
64336;BME280;50672;53.362;-6.240;2022-11-15T09:29:55;62695.50;;;-147.99;100.00
64336;BME280;50672;53.362;-6.240;2022-11-15T09:32:22;62695.50;;;-147.99;100.00
64336;BME280;50672;53.362;-6.240;2022-11-15T09:34:51;62695.50;;;-147.99;100.00
64336;BME280;50672;53.362;-6.240;2022-11-15T09:37:18;62695.50;;;-147.99;100.00
64336;BME280;50672;53.362;-6.240;2022-11-15T09:39:45;62695.50;;;-147.99;100.00
64336;BME280;50672;53.362;-6.240;2022-11-15T09:45:06;62695.50;;;-147.99;100.00
64336;BME280;50672;53.362;-6.240;2022-11-15T09:50:14;62695.50;;;-147.99;100.00
64336;BME280;50672;53.362;-6.240;2022-11-15T09:52:43;62695.50;;;-147.99;100.00
64336;BME280;50672;53.362;-6.240;2022-11-15T09:55:12;62695.50;;;-147.99;100.00
64336;BME280;50672;53.362;-6.240;2022-11-15T09:58:01;62695.50;;;-147.99;100.00
64336;BME280;50672;53.362;-6.240;2022-11-15T10:00:40;62695.50;;;-147.99;100.00
64336;BME280;50672;53.362;-6.240;2022-11-15T10:03:34;62695.50;;;-147.99;100.00
64336;BME280;50672;53.362;-6.240;2022-11-15T10:07:01;62695.50;;;-147.99;100.00
64336;BME280;50672;53.362;-6.240;2022-11-15T10:09:38;62695.50;;;-147.99;100.00
64336;BME280;50672;53.362;-6.240;2022-11-15T10:12:09;62695.50;;;-147.99;100.00
64336;BME280;50672;53.362;-6.240;2022-11-15T10:14:38;62695.50;;;-147.99;100.00
64336;BME280;50672;53.362;-6.240;2022-11-15T10:19:56;62695.50;;;-147.99;100.00
64336;BME280;50672;53.362;-6.240;2022-11-15T10:22:52;62695.50;;;-147.99;100.00
64336;BME280;50672;53.362;-6.240;2022-11-15T10:25:24;62695.50;;;-147.99;100.00
64336;BME280;50672;53.362;-6.240;2022-11-15T10:30:36;62695.50;;;-147.99;100.00
64336;BME280;50672;53.362;-6.240;2022-11-15T10:33:19;62695.50;;;-147.99;100.00
64336;BME280;50672;53.362;-6.240;2022-11-15T10:46:35;62695.50;;;-147.99;100.00
64336;BME280;50672;53.362;-6.240;2022-11-15T10:51:52;62695.50;;;-147.99;100.00
64336;BME280;50672;53.362;-6.240;2022-11-15T10:54:34;62695.50;;;-147.99;100.00
64336;BME280;50672;53.362;-6.240;2022-11-15T10:57:07;62695.50;;;-147.99;100.00
64336;BME280;50672;53.362;-6.240;2022-11-15T10:59:36;62695.50;;;-147.99;100.00
64336;BME280;50672;53.362;-6.240;2022-11-15T11:02:28;62695.50;;;-147.99;100.00
64336;BME280;50672;53.362;-6.240;2022-11-15T11:04:56;62695.50;;;-147.99;100.00
64336;BME280;50672;53.362;-6.240;2022-11-15T11:07:27;62695.50;;;-147.99;100.00
64336;BME280;50672;53.362;-6.240;2022-11-15T11:09:59;62695.50;;;-147.99;100.00
64336;BME280;50672;53.362;-6.240;2022-11-15T11:12:32;62695.50;;;-147.99;100.00
64336;BME280;50672;53.362;-6.240;2022-11-15T11:15:01;62695.50;;;-147.99;100.00
64336;BME280;50672;53.362;-6.240;2022-11-15T11:17:36;62695.50;;;-147.99;100.00
64336;BME280;50672;53.362;-6.240;2022-11-15T11:25:36;62695.50;;;-147.99;100.00
64336;BME280;50672;53.362;-6.240;2022-11-15T11:28:41;62695.50;;;-147.99;100.00
64336;BME280;50672;53.362;-6.240;2022-11-15T11:31:20;62695.50;;;-147.99;100.00
64336;BME280;50672;53.362;-6.240;2022-11-15T11:34:11;62695.50;;;-147.99;100.00
64336;BME280;50672;53.362;-6.240;2022-11-15T11:43:06;62695.50;;;-147.99;100.00
64336;BME280;50672;53.362;-6.240;2022-11-15T11:48:19;62695.50;;;-147.99;100.00
64336;BME280;50672;53.362;-6.240;2022-11-15T11:50:48;62695.50;;;-147.99;100.00
64336;BME280;50672;53.362;-6.240;2022-11-15T11:53:31;62695.50;;;-147.99;100.00
64336;BME280;50672;53.362;-6.240;2022-11-15T11:56:10;62695.50;;;-147.99;100.00
64336;BME280;50672;53.362;-6.240;2022-11-15T11:58:43;62695.50;;;-147.99;100.00
64336;BME280;50672;53.362;-6.240;2022-11-15T12:01:17;62695.50;;;-147.99;100.00
64336;BME280;50672;53.362;-6.240;2022-11-15T12:06:32;62695.50;;;-147.99;100.00
64336;BME280;50672;53.362;-6.240;2022-11-15T12:12:11;62695.50;;;-147.99;100.00
64336;BME280;50672;53.362;-6.240;2022-11-15T12:14:57;62695.50;;;-147.99;100.00
64336;BME280;50672;53.362;-6.240;2022-11-15T12:17:29;62695.50;;;-147.99;100.00
64336;BME280;50672;53.362;-6.240;2022-11-15T12:20:03;62695.50;;;-147.99;100.00
64336;BME280;50672;53.362;-6.240;2022-11-15T12:23:06;62695.50;;;-147.99;100.00
64336;BME280;50672;53.362;-6.240;2022-11-15T12:25:54;62695.50;;;-147.99;100.00
64336;BME280;50672;53.362;-6.240;2022-11-15T12:28:39;62695.50;;;-147.99;100.00
64336;BME280;50672;53.362;-6.240;2022-11-15T12:31:37;62695.50;;;-147.99;100.00
64336;BME280;50672;53.362;-6.240;2022-11-15T12:34:35;62695.50;;;-147.99;100.00
64336;BME280;50672;53.362;-6.240;2022-11-15T12:37:32;62695.50;;;-147.99;100.00
64336;BME280;50672;53.362;-6.240;2022-11-15T12:42:42;62695.50;;;-147.99;100.00
64336;BME280;50672;53.362;-6.240;2022-11-15T12:45:28;62695.50;;;-147.99;100.00
64336;BME280;50672;53.362;-6.240;2022-11-15T13:04:25;62695.50;;;-147.99;100.00
64336;BME280;50672;53.362;-6.240;2022-11-15T13:06:57;62695.50;;;-147.99;100.00
64336;BME280;50672;53.362;-6.240;2022-11-15T13:12:10;62695.50;;;-147.99;100.00
64336;BME280;50672;53.362;-6.240;2022-11-15T13:17:33;62695.50;;;-147.99;100.00
64336;BME280;50672;53.362;-6.240;2022-11-15T13:25:55;62695.50;;;-147.99;100.00
64336;BME280;50672;53.362;-6.240;2022-11-15T13:28:31;62695.50;;;-147.99;100.00
64336;BME280;50672;53.362;-6.240;2022-11-15T13:31:02;62695.50;;;-147.99;100.00
64336;BME280;50672;53.362;-6.240;2022-11-15T13:33:33;62695.50;;;-147.99;100.00
64336;BME280;50672;53.362;-6.240;2022-11-15T13:36:22;62695.50;;;-147.99;100.00
64336;BME280;50672;53.362;-6.240;2022-11-15T13:39:04;62695.50;;;-147.99;100.00
64336;BME280;50672;53.362;-6.240;2022-11-15T13:41:36;62695.50;;;-147.99;100.00
64336;BME280;50672;53.362;-6.240;2022-11-15T13:44:28;62695.50;;;-147.99;100.00
64336;BME280;50672;53.362;-6.240;2022-11-15T13:47:09;62695.50;;;-147.99;100.00
64336;BME280;50672;53.362;-6.240;2022-11-15T13:49:39;62695.50;;;-147.99;100.00
64336;BME280;50672;53.362;-6.240;2022-11-15T13:52:16;62695.50;;;-147.99;100.00
64336;BME280;50672;53.362;-6.240;2022-11-15T13:54:50;62695.50;;;-147.99;100.00
64336;BME280;50672;53.362;-6.240;2022-11-15T13:57:23;62695.50;;;-147.99;100.00
64336;BME280;50672;53.362;-6.240;2022-11-15T13:59:57;62695.50;;;-147.99;100.00
64336;BME280;50672;53.362;-6.240;2022-11-15T14:02:32;62695.50;;;-147.99;100.00
64336;BME280;50672;53.362;-6.240;2022-11-15T14:05:16;62695.50;;;-147.99;100.00
64336;BME280;50672;53.362;-6.240;2022-11-15T14:07:57;62695.50;;;-147.99;100.00
64336;BME280;50672;53.362;-6.240;2022-11-15T14:10:29;62695.50;;;-147.99;100.00
64336;BME280;50672;53.362;-6.240;2022-11-15T14:12:57;62695.50;;;-147.99;100.00
64336;BME280;50672;53.362;-6.240;2022-11-15T14:15:31;62695.50;;;-147.99;100.00
64336;BME280;50672;53.362;-6.240;2022-11-15T14:17:58;62695.50;;;-147.99;100.00
64336;BME280;50672;53.362;-6.240;2022-11-15T14:20:26;62695.50;;;-147.99;100.00
64336;BME280;50672;53.362;-6.240;2022-11-15T14:22:56;62695.50;;;-147.99;100.00
64336;BME280;50672;53.362;-6.240;2022-11-15T14:25:35;62695.50;;;-147.99;100.00
64336;BME280;50672;53.362;-6.240;2022-11-15T14:28:33;62695.50;;;-147.99;100.00
64336;BME280;50672;53.362;-6.240;2022-11-15T14:31:00;62695.50;;;-147.99;100.00
64336;BME280;50672;53.362;-6.240;2022-11-15T14:33:35;62695.50;;;-147.99;100.00
64336;BME280;50672;53.362;-6.240;2022-11-15T14:36:11;62695.50;;;-147.99;100.00
64336;BME280;50672;53.362;-6.240;2022-11-15T14:38:38;62695.50;;;-147.99;100.00
64336;BME280;50672;53.362;-6.240;2022-11-15T14:41:15;62695.50;;;-147.99;100.00